createdAt,value
2023-03-07T00:01:00.588Z,61.70
2023-03-07T00:03:27.730Z,61.44
2023-03-07T00:06:10.326Z,61.30
2023-03-07T00:08:37.674Z,61.76
2023-03-07T00:11:07.596Z,61.68
2023-03-07T00:13:38.312Z,61.53
2023-03-07T00:16:18.002Z,61.73
2023-03-07T00:18:44.938Z,61.89
2023-03-07T00:21:14.828Z,61.67
2023-03-07T00:23:44.305Z,61.90
2023-03-07T00:26:17.859Z,62.02
2023-03-07T00:28:48.193Z,62.04
2023-03-07T00:31:14.976Z,62.00
2023-03-07T00:33:42.328Z,61.84
2023-03-07T00:36:16.684Z,61.72
2023-03-07T00:38:44.852Z,61.77
2023-03-07T00:41:24.760Z,61.99
2023-03-07T00:43:52.351Z,62.12
2023-03-07T00:46:20.728Z,62.00
2023-03-07T00:48:48.245Z,62.11
2023-03-07T00:51:17.452Z,62.17
2023-03-07T00:53:44.644Z,62.46
2023-03-07T00:56:37.939Z,62.34
2023-03-07T00:59:04.778Z,62.60
2023-03-07T01:01:31.772Z,62.24
2023-03-07T01:03:58.649Z,62.77
2023-03-07T01:06:28.999Z,62.28
2023-03-07T01:09:02.115Z,62.76
2023-03-07T01:11:30.645Z,62.78
2023-03-07T01:14:00.125Z,62.78
2023-03-07T01:16:31.034Z,62.91
2023-03-07T01:19:12.279Z,62.75
2023-03-07T01:21:41.637Z,63.03
2023-03-07T01:24:14.119Z,62.79
2023-03-07T01:26:40.959Z,63.23
2023-03-07T01:29:08.453Z,63.25
2023-03-07T01:31:35.741Z,63.04
2023-03-07T01:34:03.796Z,63.25
2023-03-07T01:36:34.099Z,63.27
2023-03-07T01:39:07.638Z,63.44
2023-03-07T01:41:37.190Z,63.70
2023-03-07T01:44:14.915Z,63.52
2023-03-07T01:46:53.393Z,63.56
2023-03-07T01:49:35.092Z,63.77
2023-03-07T01:52:04.703Z,63.95
2023-03-07T01:54:34.323Z,63.61
2023-03-07T01:57:03.164Z,64.00
2023-03-07T01:59:35.096Z,64.04
2023-03-07T02:02:09.069Z,63.96
2023-03-07T02:04:58.060Z,63.98
2023-03-07T02:07:30.755Z,64.17
2023-03-07T02:10:00.170Z,64.38
2023-03-07T02:12:27.585Z,64.57
2023-03-07T02:14:54.391Z,64.03
2023-03-07T02:17:21.188Z,64.32
2023-03-07T02:20:41.983Z,64.15
2023-03-07T02:23:13.826Z,64.63
2023-03-07T02:25:49.577Z,64.49
2023-03-07T02:28:18.989Z,64.33
2023-03-07T02:31:02.937Z,64.59
2023-03-07T02:33:30.068Z,64.56
2023-03-07T02:36:03.421Z,64.84
2023-03-07T02:38:33.432Z,64.76
2023-03-07T02:41:00.212Z,64.68
2023-03-07T02:43:27.297Z,64.67
2023-03-07T02:45:55.618Z,64.92
2023-03-07T02:48:22.365Z,64.80
2023-03-07T02:50:49.476Z,64.96
2023-03-07T02:53:16.488Z,64.79
2023-03-07T02:55:43.356Z,64.93
2023-03-07T02:58:10.173Z,65.10
2023-03-07T03:00:37.183Z,64.68
2023-03-07T03:03:04.161Z,65.03
2023-03-07T03:05:31.159Z,65.02
2023-03-07T03:07:57.942Z,64.92
2023-03-07T03:10:24.728Z,65.03
2023-03-07T03:12:51.489Z,65.20
2023-03-07T03:15:18.292Z,65.05
2023-03-07T03:17:45.110Z,65.00
2023-03-07T03:20:12.961Z,65.40
2023-03-07T03:22:41.202Z,65.12
2023-03-07T03:25:11.665Z,65.26
2023-03-07T03:27:39.123Z,65.48
2023-03-07T03:30:08.627Z,65.64
2023-03-07T03:32:38.327Z,65.70
2023-03-07T03:35:06.964Z,65.61
2023-03-07T03:37:34.223Z,65.46
2023-03-07T03:40:01.123Z,65.74
2023-03-07T03:42:28.191Z,65.48
2023-03-07T03:44:54.951Z,65.82
2023-03-07T03:47:21.724Z,66.07
2023-03-07T03:49:48.541Z,65.48
2023-03-07T03:52:15.324Z,65.85
2023-03-07T03:54:42.112Z,65.81
2023-03-07T03:57:08.902Z,66.02
2023-03-07T03:59:35.709Z,66.03
2023-03-07T04:02:02.526Z,66.26
2023-03-07T04:04:29.403Z,66.18
2023-03-07T04:06:56.163Z,66.43
2023-03-07T04:09:22.918Z,66.39
2023-03-07T04:11:49.739Z,66.30
2023-03-07T04:14:16.527Z,66.44
2023-03-07T04:16:43.289Z,66.33
2023-03-07T04:19:12.909Z,66.43
2023-03-07T04:21:40.755Z,66.51
2023-03-07T04:24:08.942Z,66.63
2023-03-07T04:26:36.658Z,66.52
2023-03-07T04:29:04.353Z,66.58
2023-03-07T04:31:31.498Z,66.59
2023-03-07T04:33:58.621Z,66.71
2023-03-07T04:36:25.768Z,66.73
2023-03-07T04:38:52.882Z,66.59
2023-03-07T04:41:23.538Z,66.61
2023-03-07T04:43:50.328Z,66.77
2023-03-07T04:46:18.935Z,67.07
2023-03-07T04:48:46.647Z,66.71
2023-03-07T04:51:13.936Z,66.88
2023-03-07T04:53:40.725Z,66.72
2023-03-07T04:56:09.040Z,66.74
2023-03-07T04:58:36.946Z,66.91
2023-03-07T05:01:04.983Z,66.86
2023-03-07T05:03:32.664Z,67.11
2023-03-07T05:06:14.488Z,67.06
2023-03-07T05:08:41.396Z,67.06
2023-03-07T05:11:08.231Z,66.94
2023-03-07T05:13:35.127Z,66.77
2023-03-07T05:16:02.009Z,66.80
2023-03-07T05:18:29.398Z,66.62
2023-03-07T05:20:56.337Z,66.47
2023-03-07T05:23:23.145Z,66.48
2023-03-07T05:25:50.364Z,66.27
2023-03-07T05:28:17.297Z,66.38
2023-03-07T05:30:45.731Z,66.04
2023-03-07T05:33:12.844Z,66.31
2023-03-07T05:35:39.890Z,66.14
2023-03-07T05:38:08.081Z,66.29
2023-03-07T05:40:35.163Z,66.36
2023-03-07T05:43:02.308Z,66.56
2023-03-07T05:45:29.199Z,66.15
2023-03-07T05:47:55.945Z,66.05
2023-03-07T05:50:22.722Z,66.50
2023-03-07T05:52:49.822Z,66.14
2023-03-07T05:55:16.616Z,66.66
2023-03-07T05:57:43.419Z,66.29
2023-03-07T06:00:11.377Z,66.53
2023-03-07T06:02:38.258Z,66.21
2023-03-07T06:05:05.431Z,66.45
2023-03-07T06:07:32.234Z,66.29
2023-03-07T06:09:59.058Z,66.83
2023-03-07T06:12:25.958Z,66.36
2023-03-07T06:14:52.736Z,66.59
2023-03-07T06:17:19.542Z,66.78
2023-03-07T06:19:46.306Z,66.51
2023-03-07T06:22:13.117Z,66.60
2023-03-07T06:24:40.004Z,66.45
2023-03-07T06:27:06.752Z,66.32
2023-03-07T06:29:33.581Z,66.43
2023-03-07T06:32:00.515Z,66.84
2023-03-07T06:34:27.486Z,66.83
2023-03-07T06:36:54.436Z,66.55
2023-03-07T06:39:21.473Z,66.94
2023-03-07T06:41:51.590Z,66.45
2023-03-07T06:44:18.773Z,66.83
2023-03-07T06:46:46.290Z,67.06
2023-03-07T06:49:13.394Z,66.99
2023-03-07T06:51:40.552Z,67.04
2023-03-07T06:54:07.363Z,67.00
2023-03-07T06:56:35.231Z,66.81
2023-03-07T06:59:02.584Z,67.01
2023-03-07T07:01:29.434Z,67.28
2023-03-07T07:03:57.167Z,66.91
2023-03-07T07:06:24.283Z,67.38
2023-03-07T07:08:55.800Z,67.10
2023-03-07T07:11:24.001Z,66.90
2023-03-07T07:13:50.962Z,67.12
2023-03-07T07:16:18.827Z,67.02
2023-03-07T07:18:46.100Z,67.09
2023-03-07T07:21:12.924Z,67.09
2023-03-07T07:23:40.003Z,67.27
2023-03-07T07:26:06.901Z,67.17
2023-03-07T07:28:33.756Z,67.21
2023-03-07T07:31:00.638Z,66.85
2023-03-07T07:33:27.677Z,67.18
2023-03-07T07:35:54.562Z,67.13
2023-03-07T07:38:21.367Z,67.34
2023-03-07T07:40:48.184Z,67.19
2023-03-07T07:43:16.387Z,67.11
2023-03-07T07:45:43.510Z,67.12
2023-03-07T07:48:10.497Z,66.79
2023-03-07T07:50:37.672Z,66.94
2023-03-07T07:53:04.458Z,67.12
2023-03-07T07:55:31.207Z,67.01
2023-03-07T07:57:58.046Z,66.78
2023-03-07T08:00:25.172Z,66.51
2023-03-07T08:02:52.080Z,66.43
2023-03-07T08:05:21.460Z,66.23
2023-03-07T08:07:49.593Z,66.03
2023-03-07T08:10:17.952Z,66.21
2023-03-07T08:12:48.443Z,66.23
2023-03-07T08:15:16.994Z,65.87
2023-03-07T08:17:44.439Z,65.94
2023-03-07T08:20:11.581Z,65.85
2023-03-07T08:22:39.153Z,65.79
2023-03-07T08:25:17.772Z,65.72
2023-03-07T08:27:44.893Z,65.70
2023-03-07T08:30:13.169Z,65.55
2023-03-07T08:32:40.030Z,65.80
2023-03-07T08:35:07.626Z,65.66
2023-03-07T08:37:35.241Z,65.45
2023-03-07T08:40:02.760Z,65.42
2023-03-07T08:42:30.139Z,65.63
2023-03-07T08:44:56.962Z,65.63
2023-03-07T08:47:24.286Z,65.60
2023-03-07T08:49:51.379Z,65.36
2023-03-07T08:52:18.245Z,65.37
2023-03-07T08:54:45.077Z,64.97
2023-03-07T08:57:11.839Z,65.07
2023-03-07T08:59:38.635Z,64.68
2023-03-07T09:02:05.630Z,64.81
2023-03-07T09:04:32.476Z,64.82
2023-03-07T09:07:01.517Z,64.70
2023-03-07T09:09:30.136Z,64.68
2023-03-07T09:11:57.545Z,64.71
2023-03-07T09:14:24.500Z,64.72
2023-03-07T09:16:53.813Z,64.70
2023-03-07T09:19:20.665Z,64.59
2023-03-07T09:21:47.489Z,64.92
2023-03-07T09:24:14.234Z,64.65
2023-03-07T09:26:41.017Z,64.66
2023-03-07T09:29:07.871Z,64.98
2023-03-07T09:31:34.729Z,65.00
2023-03-07T09:34:01.489Z,64.87
2023-03-07T09:36:28.902Z,64.75
2023-03-07T09:38:58.105Z,64.81
2023-03-07T09:41:48.686Z,65.07
2023-03-07T09:44:36.541Z,64.90
2023-03-07T09:47:35.730Z,64.93
2023-03-07T09:50:12.465Z,65.33
2023-03-07T09:52:41.540Z,65.18
2023-03-07T09:55:19.343Z,64.97
2023-03-07T09:57:55.295Z,64.94
2023-03-07T10:00:27.688Z,65.15
2023-03-07T10:03:09.497Z,65.11
2023-03-07T10:05:44.285Z,65.08
2023-03-07T10:08:18.591Z,65.26
2023-03-07T10:11:23.196Z,65.29
2023-03-07T10:14:38.462Z,65.37
2023-03-07T10:17:35.105Z,65.47
2023-03-07T10:20:36.474Z,65.17
2023-03-07T10:23:19.862Z,65.32
2023-03-07T10:26:00.354Z,65.21
2023-03-07T10:28:31.683Z,65.21
2023-03-07T10:31:24.306Z,65.60
2023-03-07T10:33:53.422Z,65.53
2023-03-07T10:36:51.585Z,65.34
2023-03-07T10:39:40.056Z,65.60
2023-03-07T10:42:13.724Z,65.74
2023-03-07T10:44:42.005Z,65.38
2023-03-07T10:47:29.700Z,65.48
2023-03-07T10:50:44.679Z,65.77
2023-03-07T10:53:30.209Z,65.63
2023-03-07T10:56:18.941Z,65.72
2023-03-07T10:59:09.521Z,65.70
2023-03-07T11:01:39.207Z,66.01
2023-03-07T11:04:44.695Z,65.94
2023-03-07T11:07:30.371Z,65.92
2023-03-07T11:09:59.227Z,65.91
2023-03-07T11:12:29.447Z,65.85
2023-03-07T11:14:58.827Z,65.77
2023-03-07T11:17:49.327Z,66.01
2023-03-07T11:20:24.920Z,65.83
2023-03-07T11:23:23.241Z,65.86
2023-03-07T11:25:52.411Z,65.91
2023-03-07T11:28:35.692Z,65.96
2023-03-07T11:31:23.229Z,65.84
2023-03-07T11:34:41.215Z,66.02
2023-03-07T11:37:43.225Z,66.18
2023-03-07T11:41:00.235Z,66.49
2023-03-07T11:44:10.593Z,66.38
2023-03-07T11:47:00.945Z,66.49
2023-03-07T11:49:43.387Z,66.47
2023-03-07T11:52:41.198Z,66.54
2023-03-07T11:55:37.365Z,66.58
2023-03-07T11:58:50.787Z,66.49
2023-03-07T12:01:57.059Z,66.66
2023-03-07T12:04:59.596Z,66.75
2023-03-07T12:08:08.848Z,66.68
2023-03-07T12:11:13.561Z,66.63
2023-03-07T12:14:18.683Z,66.56
2023-03-07T12:17:18.593Z,66.87
2023-03-07T12:20:23.788Z,66.93
2023-03-07T12:23:04.655Z,67.24
2023-03-07T12:25:38.630Z,66.86
2023-03-07T12:28:22.544Z,67.32
2023-03-07T12:31:11.460Z,67.21
2023-03-07T12:34:03.386Z,66.93
2023-03-07T12:36:49.992Z,67.24
2023-03-07T12:39:31.353Z,67.23
2023-03-07T12:42:15.362Z,66.91
2023-03-07T12:44:51.198Z,67.02
2023-03-07T12:47:57.935Z,66.81
2023-03-07T12:50:37.431Z,66.88
2023-03-07T12:53:32.336Z,66.92
2023-03-07T12:56:06.144Z,67.05
2023-03-07T12:58:41.441Z,66.86
2023-03-07T13:01:32.440Z,66.67
2023-03-07T13:04:17.777Z,66.88
2023-03-07T13:06:46.103Z,66.46
2023-03-07T13:09:26.548Z,66.73
2023-03-07T13:12:25.234Z,66.79
2023-03-07T13:15:06.474Z,66.73
2023-03-07T13:17:35.897Z,66.69
2023-03-07T13:20:27.533Z,66.62
2023-03-07T13:22:54.319Z,66.53
2023-03-07T13:25:21.128Z,66.48
2023-03-07T13:28:31.302Z,66.30
2023-03-07T13:31:16.439Z,66.31
2023-03-07T13:33:43.590Z,66.12
2023-03-07T13:36:38.531Z,65.69
2023-03-07T13:39:36.139Z,65.62
2023-03-07T13:42:03.086Z,65.21
2023-03-07T13:44:39.550Z,64.47
2023-03-07T13:47:44.794Z,65.45
2023-03-07T13:50:38.776Z,65.44
2023-03-07T13:53:15.768Z,65.62
2023-03-07T13:55:50.833Z,65.62
2023-03-07T13:58:24.405Z,65.86
2023-03-07T14:00:56.193Z,65.71
2023-03-07T14:03:34.860Z,65.82
2023-03-07T14:06:11.267Z,65.76
2023-03-07T14:08:38.942Z,65.88
2023-03-07T14:11:16.632Z,65.90
2023-03-07T14:14:34.646Z,65.91
2023-03-07T14:17:21.042Z,65.98
2023-03-07T14:20:09.613Z,65.98
2023-03-07T14:23:18.413Z,65.93
2023-03-07T14:25:53.043Z,65.88
2023-03-07T14:28:26.593Z,65.99
2023-03-07T14:31:07.168Z,65.86
2023-03-07T14:33:37.772Z,65.87
2023-03-07T14:36:20.667Z,65.44
2023-03-07T14:38:48.754Z,65.77
2023-03-07T14:41:49.332Z,65.41
2023-03-07T14:44:55.640Z,65.46
2023-03-07T14:48:06.228Z,65.69
2023-03-07T14:50:34.053Z,65.49
2023-03-07T14:53:10.548Z,65.60
2023-03-07T14:55:43.331Z,65.76
2023-03-07T14:58:23.872Z,65.34
2023-03-07T15:01:15.863Z,65.38
2023-03-07T15:03:49.342Z,65.39
2023-03-07T15:06:22.791Z,65.60
2023-03-07T15:08:51.901Z,65.50
2023-03-07T15:11:45.416Z,65.45
2023-03-07T15:14:20.276Z,65.58
2023-03-07T15:16:54.113Z,65.41
2023-03-07T15:19:25.501Z,65.44
2023-03-07T15:21:58.928Z,65.31
2023-03-07T15:24:38.781Z,65.29
2023-03-07T15:27:10.340Z,65.40
2023-03-07T15:29:37.517Z,65.39
2023-03-07T15:32:07.348Z,65.24
2023-03-07T15:34:39.025Z,64.93
2023-03-07T15:37:53.339Z,65.36
2023-03-07T15:40:33.790Z,64.88
2023-03-07T15:43:04.697Z,65.07
2023-03-07T15:45:38.705Z,65.15
2023-03-07T15:48:48.502Z,64.91
2023-03-07T15:51:19.310Z,65.05
2023-03-07T15:54:03.431Z,65.29
2023-03-07T15:56:35.062Z,64.86
2023-03-07T15:59:17.015Z,64.68
2023-03-07T16:01:43.962Z,64.94
2023-03-07T16:04:37.124Z,65.01
2023-03-07T16:07:04.888Z,65.01
2023-03-07T16:09:31.697Z,65.24
2023-03-07T16:11:58.518Z,65.01
2023-03-07T16:14:29.319Z,65.03
2023-03-07T16:17:03.947Z,64.73
2023-03-07T16:19:31.255Z,64.87
2023-03-07T16:21:58.045Z,64.87
2023-03-07T16:24:24.890Z,64.96
2023-03-07T16:26:51.730Z,65.00
2023-03-07T16:29:22.717Z,64.86
2023-03-07T16:31:49.551Z,64.82
2023-03-07T16:34:22.687Z,64.93
2023-03-07T16:36:50.083Z,64.76
2023-03-07T16:39:18.305Z,64.89
2023-03-07T16:41:48.367Z,64.58
2023-03-07T16:44:20.889Z,64.67
2023-03-07T16:46:58.575Z,64.93
2023-03-07T16:49:25.339Z,65.02
2023-03-07T16:52:04.697Z,64.69
2023-03-07T16:54:32.419Z,64.48
2023-03-07T16:56:59.275Z,64.89
2023-03-07T16:59:35.831Z,64.64
2023-03-07T17:02:11.778Z,64.72
2023-03-07T17:04:38.577Z,64.69
2023-03-07T17:07:15.516Z,64.95
2023-03-07T17:09:42.845Z,64.55
2023-03-07T17:12:10.034Z,64.96
2023-03-07T17:14:36.953Z,64.68
2023-03-07T17:17:04.956Z,64.94
2023-03-07T17:19:33.394Z,64.73
2023-03-07T17:22:02.207Z,64.74
2023-03-07T17:24:30.029Z,65.07
2023-03-07T17:27:00.251Z,64.55
2023-03-07T17:29:43.475Z,64.59
2023-03-07T17:32:10.719Z,65.03
2023-03-07T17:34:39.702Z,65.11
2023-03-07T17:37:06.941Z,65.45
2023-03-07T17:39:34.730Z,65.16
2023-03-07T17:42:02.150Z,65.36
2023-03-07T17:44:29.204Z,65.48
2023-03-07T17:46:56.093Z,65.28
2023-03-07T17:49:23.352Z,65.42
2023-03-07T17:51:50.296Z,65.80
2023-03-07T17:54:17.311Z,65.07
2023-03-07T17:56:45.253Z,65.20
2023-03-07T17:59:12.087Z,65.22
2023-03-07T18:01:39.974Z,64.97
2023-03-07T18:04:06.832Z,65.07
2023-03-07T18:06:34.500Z,65.03
2023-03-07T18:09:05.181Z,64.88
2023-03-07T18:11:32.672Z,65.25
2023-03-07T18:13:59.730Z,64.98
2023-03-07T18:16:27.139Z,65.08
2023-03-07T18:19:00.091Z,64.87
2023-03-07T18:21:30.335Z,64.72
2023-03-07T18:23:57.602Z,65.01
2023-03-07T18:26:24.878Z,64.86
2023-03-07T18:28:53.750Z,65.15
2023-03-07T18:31:25.300Z,64.85
2023-03-07T18:33:53.276Z,64.85
2023-03-07T18:36:23.092Z,64.82
2023-03-07T18:38:50.592Z,64.88
2023-03-07T18:41:23.877Z,65.12
2023-03-07T18:43:53.103Z,65.12
2023-03-07T18:46:22.315Z,65.09
2023-03-07T18:48:49.779Z,65.54
2023-03-07T18:51:23.647Z,65.18
2023-03-07T18:53:58.736Z,65.02
2023-03-07T18:56:26.204Z,65.05
2023-03-07T18:58:56.006Z,65.39
2023-03-07T19:01:32.535Z,64.94
2023-03-07T19:04:03.287Z,65.43
2023-03-07T19:06:40.571Z,65.17
2023-03-07T19:09:27.774Z,64.97
2023-03-07T19:11:54.602Z,65.18
2023-03-07T19:14:21.400Z,65.45
2023-03-07T19:16:48.357Z,65.39
2023-03-07T19:19:15.446Z,65.26
2023-03-07T19:21:42.267Z,65.55
2023-03-07T19:24:11.279Z,65.16
2023-03-07T19:26:38.115Z,65.58
2023-03-07T19:29:04.950Z,65.51
2023-03-07T19:31:33.127Z,65.06
2023-03-07T19:34:03.364Z,65.82
2023-03-07T19:36:31.980Z,65.46
2023-03-07T19:39:02.096Z,65.63
2023-03-07T19:41:31.386Z,65.64
2023-03-07T19:43:59.980Z,65.66
2023-03-07T19:46:27.552Z,65.93
2023-03-07T19:48:54.440Z,65.81
2023-03-07T19:51:24.829Z,65.51
2023-03-07T19:53:52.319Z,65.77
2023-03-07T19:56:27.332Z,65.50
2023-03-07T19:58:54.950Z,65.44
2023-03-07T20:01:23.533Z,65.51
2023-03-07T20:03:50.812Z,65.46
2023-03-07T20:06:21.508Z,65.20
2023-03-07T20:08:53.042Z,65.29
2023-03-07T20:11:25.008Z,65.56
2023-03-07T20:13:55.920Z,65.55
2023-03-07T20:16:23.459Z,65.53
2023-03-07T20:18:52.546Z,65.75
2023-03-07T20:21:21.795Z,65.34
2023-03-07T20:23:49.005Z,65.55
2023-03-07T20:26:19.756Z,65.35
2023-03-07T20:28:46.517Z,65.66
2023-03-07T20:31:13.761Z,65.47
2023-03-07T20:33:45.378Z,65.90
2023-03-07T20:36:24.085Z,65.89
2023-03-07T20:38:54.631Z,66.04
2023-03-07T20:41:24.936Z,65.43
2023-03-07T20:43:53.099Z,65.82
2023-03-07T20:46:23.321Z,65.96
2023-03-07T20:48:53.977Z,66.00
2023-03-07T20:51:23.814Z,65.61
2023-03-07T20:54:06.084Z,66.05
2023-03-07T20:56:35.041Z,65.90
2023-03-07T20:59:02.077Z,66.01
2023-03-07T21:01:31.537Z,66.00
2023-03-07T21:04:07.983Z,65.70
2023-03-07T21:06:37.142Z,65.73
2023-03-07T21:09:09.951Z,65.95
2023-03-07T21:11:40.093Z,66.44
2023-03-07T21:14:06.954Z,66.26
2023-03-07T21:16:34.348Z,66.10
2023-03-07T21:19:03.789Z,66.07
2023-03-07T21:21:32.460Z,66.42
2023-03-07T21:23:59.753Z,66.57
2023-03-07T21:26:32.867Z,66.32
2023-03-07T21:29:00.117Z,66.32
2023-03-07T21:31:30.343Z,66.91
2023-03-07T21:34:07.215Z,66.72
2023-03-07T21:36:34.463Z,66.67
2023-03-07T21:39:03.995Z,66.44
2023-03-07T21:41:30.812Z,66.03
2023-03-07T21:43:58.336Z,66.54
2023-03-07T21:46:25.976Z,66.83
2023-03-07T21:48:53.102Z,66.43
2023-03-07T21:51:20.571Z,66.83
2023-03-07T21:53:47.471Z,65.99
2023-03-07T21:56:17.105Z,65.91
2023-03-07T21:58:47.317Z,66.27
2023-03-07T22:01:21.535Z,66.04
2023-03-07T22:03:51.310Z,66.43
2023-03-07T22:06:18.209Z,66.38
2023-03-07T22:08:45.169Z,66.03
2023-03-07T22:11:13.191Z,66.13
2023-03-07T22:13:41.555Z,66.24
2023-03-07T22:16:12.549Z,66.10
2023-03-07T22:18:39.741Z,65.70
2023-03-07T22:21:13.928Z,66.14
2023-03-07T22:23:40.982Z,66.20
2023-03-07T22:26:09.631Z,65.88
2023-03-07T22:28:37.202Z,66.02
2023-03-07T22:31:07.694Z,66.36
2023-03-07T22:33:34.616Z,66.03
2023-03-07T22:36:05.376Z,66.48
2023-03-07T22:38:32.507Z,66.50
2023-03-07T22:41:10.813Z,66.20
2023-03-07T22:43:37.844Z,66.20
2023-03-07T22:46:05.771Z,65.83
2023-03-07T22:48:33.018Z,66.33
2023-03-07T22:51:00.042Z,66.63
2023-03-07T22:53:32.073Z,66.27
2023-03-07T22:55:59.660Z,66.69
2023-03-07T22:58:27.606Z,66.64
2023-03-07T23:00:54.500Z,66.33
2023-03-07T23:03:21.297Z,66.29
2023-03-07T23:06:19.743Z,66.07
2023-03-07T23:08:49.468Z,67.01
2023-03-07T23:11:18.253Z,67.06
2023-03-07T23:13:45.761Z,66.75
2023-03-07T23:16:18.980Z,67.29
2023-03-07T23:18:46.515Z,66.90
2023-03-07T23:21:16.515Z,66.69
2023-03-07T23:23:44.307Z,66.59
2023-03-07T23:26:22.255Z,66.67
2023-03-07T23:28:49.376Z,66.28
2023-03-07T23:31:23.208Z,67.32
2023-03-07T23:33:50.769Z,66.46
2023-03-07T23:36:17.632Z,66.71
2023-03-07T23:38:47.501Z,66.80
2023-03-07T23:41:14.331Z,67.19
2023-03-07T23:43:41.085Z,67.04
2023-03-07T23:46:07.870Z,67.12
2023-03-07T23:48:34.700Z,66.28
2023-03-07T23:51:01.583Z,66.65
2023-03-07T23:53:28.381Z,66.85
2023-03-07T23:55:55.144Z,67.07
2023-03-07T23:58:21.895Z,66.78
